Hiroshima, Japan
Current Conditions -  °F | °C
As of 3:55 PM on Wednesday 22 Oct 2014 (Local Time) from RJOI Reporting Station
Rain Showers Rain Showers  
Wind Chill: 63°   Ceiling: 2500
Heat Index: 63°   Visibility: 6mi
Dew Point: 56°   Wind: 21mph
Humidity: 78%   Direction: 360°N
Pressure: 29.92"   Gusts: NA
Location:  34.39°N, 132.44°E
Report Text: RJOI 220655Z 36018KT 9999 -SHRA FEW010 BKN025 OVC040 17/13 A2992 RMK SLP130 P0000 T01720133
Loading
Personal Weather Stations






























Interactive Weather Map
Tropical Storm Tracking
New forecast layout! Learn more

10-Day Weather Forecast

Advertisements
Track Severe Weather on mobile